Minerva — CSXI4 — position and weather

sailwx.info

Track history (hours):
 
Tides and Currents Weather Stations Pressure Air Temp Water Temp Dewpoint Dewpoint Depression Visibility Wind Speed Wind Dir Waves Ship Positions

Minerva

Last reported at 2015-May-03 18:33 UTC. Time now 2015-May-04 02:59 UTC.
Position N 37°56' W 008°51'.

Length 11 m; draft 1.5 m.

Type: Pilot. MMSI: 263700025.

Date/timePositionNaut miles runAvg speedWind from/ knotsBaromVisibWave heightAir tempDewpointWater temp
2015-May-03 18:33N 37°56' W 008°51'0 0.0
2015-May-03 08:06N 37°56' W 008°51'0 0.0
2015-May-02 21:12N 37°56' W 008°51'0 0.3
2015-May-02 20:33N 37°56' W 008°51'3 2.9
2015-May-02 19:33N 37°53' W 008°51'3 1.4
2015-May-02 17:33N 37°56' W 008°51'3 0.7
2015-May-02 13:32N 37°53' W 008°50'4 2.9
2015-May-02 12:19N 37°57' W 008°52'2 2.0
2015-May-02 11:33N 37°56' W 008°51'1 0.1
2015-May-01 22:26N 37°56' W 008°51'3 3.0
2015-May-01 21:33N 37°54' W 008°51'3 2.6
2015-May-01 20:33N 37°56' W 008°51'0 0.1
2015-May-01 19:33N 37°56' W 008°51'0 0.0
2015-May-01 03:33N 37°56' W 008°51'0 0.0
2015-Apr-30 06:27N 37°56' W 008°51'0 0.0
2015-Apr-29 20:12N 37°56' W 008°51'0 0.5
2015-Apr-29 19:33N 37°56' W 008°51'0 0.0
2015-Apr-28 14:34N 37°56' W 008°51'0 0.0
2015-Apr-28 08:15N 37°56' W 008°51'0 0.0
2015-Apr-28 07:33N 37°56' W 008°51'0 0.0
2015-Apr-27 19:12N 37°56' W 008°51'0 0.0
2015-Apr-27 18:33N 37°56' W 008°51'0 0.0
2015-Apr-27 17:26N 37°56' W 008°51'0 0.0
2015-Apr-27 16:33N 37°56' W 008°51'0 0.4
2015-Apr-27 15:33N 37°56' W 008°51'0 0.1
2015-Apr-27 10:33N 37°56' W 008°51'0 0.0
2015-Apr-25 10:33N 37°56' W 008°51'2 0.9
2015-Apr-25 08:34N 37°55' W 008°52'2 1.1
2015-Apr-25 06:33N 37°57' W 008°53'0 0.2
2015-Apr-25 05:33N 37°57' W 008°53'2 1.6
2015-Apr-25 04:34N 37°56' W 008°51'0 0.0
2015-Apr-24 17:09N 37°56' W 008°51'0 0.0
2015-Apr-24 16:33N 37°56' W 008°51'0 0.0
2015-Apr-24 13:14N 37°56' W 008°51'2 2.7
2015-Apr-24 12:33N 37°57' W 008°53'0 0.2
2015-Apr-24 11:33N 37°57' W 008°53'1 1.1
2015-Apr-24 10:33N 37°57' W 008°52'1 0.5
2015-Apr-24 09:33N 37°57' W 008°52'2 0.5
2015-Apr-24 05:33N 37°56' W 008°51'0 0.2
2015-Apr-24 04:33N 37°56' W 008°51'  
Track history (hours):
 
Tides and Currents Weather Stations Pressure Air Temp Water Temp Dewpoint Dewpoint Depression Visibility Wind Speed Wind Dir Waves Ship Positions

Minerva

Last reported at 2015-May-03 18:33 UTC. Time now 2015-May-04 02:59 UTC.
Position N 37°56' W 008°51'.

Length 11 m; draft 1.5 m.

Type: Pilot. MMSI: 263700025.

Date/timePositionNaut miles runAvg speedWind from/ knotsBaromVisibWave heightAir tempDewpointWater temp
2015-May-03 18:33N 37°56' W 008°51'0 0.0
2015-May-03 08:06N 37°56' W 008°51'0 0.0
2015-May-02 21:12N 37°56' W 008°51'0 0.3
2015-May-02 20:33N 37°56' W 008°51'3 2.9
2015-May-02 19:33N 37°53' W 008°51'3 1.4
2015-May-02 17:33N 37°56' W 008°51'3 0.7
2015-May-02 13:32N 37°53' W 008°50'4 2.9
2015-May-02 12:19N 37°57' W 008°52'2 2.0
2015-May-02 11:33N 37°56' W 008°51'1 0.1
2015-May-01 22:26N 37°56' W 008°51'3 3.0
2015-May-01 21:33N 37°54' W 008°51'3 2.6
2015-May-01 20:33N 37°56' W 008°51'0 0.1
2015-May-01 19:33N 37°56' W 008°51'0 0.0
2015-May-01 03:33N 37°56' W 008°51'0 0.0
2015-Apr-30 06:27N 37°56' W 008°51'0 0.0
2015-Apr-29 20:12N 37°56' W 008°51'0 0.5
2015-Apr-29 19:33N 37°56' W 008°51'0 0.0
2015-Apr-28 14:34N 37°56' W 008°51'0 0.0
2015-Apr-28 08:15N 37°56' W 008°51'0 0.0
2015-Apr-28 07:33N 37°56' W 008°51'0 0.0
2015-Apr-27 19:12N 37°56' W 008°51'0 0.0
2015-Apr-27 18:33N 37°56' W 008°51'0 0.0
2015-Apr-27 17:26N 37°56' W 008°51'0 0.0
2015-Apr-27 16:33N 37°56' W 008°51'0 0.4
2015-Apr-27 15:33N 37°56' W 008°51'0 0.1
2015-Apr-27 10:33N 37°56' W 008°51'0 0.0
2015-Apr-25 10:33N 37°56' W 008°51'2 0.9
2015-Apr-25 08:34N 37°55' W 008°52'2 1.1
2015-Apr-25 06:33N 37°57' W 008°53'0 0.2
2015-Apr-25 05:33N 37°57' W 008°53'2 1.6
2015-Apr-25 04:34N 37°56' W 008°51'0 0.0
2015-Apr-24 17:09N 37°56' W 008°51'0 0.0
2015-Apr-24 16:33N 37°56' W 008°51'0 0.0
2015-Apr-24 13:14N 37°56' W 008°51'2 2.7
2015-Apr-24 12:33N 37°57' W 008°53'0 0.2
2015-Apr-24 11:33N 37°57' W 008°53'1 1.1
2015-Apr-24 10:33N 37°57' W 008°52'1 0.5
2015-Apr-24 09:33N 37°57' W 008°52'2 0.5
2015-Apr-24 05:33N 37°56' W 008°51'0 0.2
2015-Apr-24 04:33N 37°56' W 008°51'  

Dump ship's entire track history